Time;durP1;ratioP1;P1;durP2;ratioP2;P2;SDS_P1;SDS_P2;PMS_P1;PMS_P2;Temp;Humidity;BMP_temperature;BMP_pressure;BME280_temperature;BME280_humidity;BME280_pressure;Samples;Min_cycle;Max_cycle;Signal;HPM_P1;HPM_P2
2022/09/10 00:00:03;;;;;;;;;;;;;;;13.95;83.55;100514.31;89483;1260;81919;-61
2022/09/10 00:02:31;;;;;;;;;;;;;;;14.02;83.38;100517.13;89486;1260;81079;-61
2022/09/10 00:04:38;;;;;;;;;;;;;;;13.98;83.53;100514.65;89483;1260;98471;-58
2022/09/10 00:06:45;;;;;;;;;;;;;;;14.01;83.45;100514.79;89486;1260;87986;-58
2022/09/10 00:08:52;;;;;;;;;;;;;;;14.03;83.54;100510.52;89458;1260;94671;-54
2022/09/10 00:11:03;;;;;;;;;;;;;;;14.05;83.58;100511.35;89491;1260;81527;-56
2022/09/10 00:13:11;;;;;;;;;;;;;;;14.05;83.45;100510.10;89498;1260;81901;-49
2022/09/10 00:15:18;;;;;;;;;;;;;;;14.00;83.64;100507.14;89499;1260;98341;-56
2022/09/10 00:17:26;;;;;;;;;;;;;;;14.03;83.61;100505.42;89528;1260;87527;-57
2022/09/10 00:19:33;;;;;;;;;;;;;;;14.03;83.67;100503.08;89511;1260;94806;-62
2022/09/10 00:21:40;;;;;;;;;;;;;;;14.04;83.56;100501.83;89466;1260;81714;-60
2022/09/10 00:23:47;;;;;;;;;;;;;;;14.02;83.42;100500.16;89567;1260;84233;-59
2022/09/10 00:25:56;;;;;;;;;;;;;;;13.98;83.48;100496.19;89518;1260;97668;-58
2022/09/10 00:28:04;;;;;;;;;;;;;;;13.95;83.52;100491.30;89535;1260;87895;-58
2022/09/10 00:30:13;;;;;;;;;;;;;;;13.95;83.33;100486.02;89490;1260;95047;-54
2022/09/10 00:32:21;;;;;;;;;;;;;;;13.94;83.34;100485.70;89526;1260;79358;-55
2022/09/10 00:34:28;;;;;;;;;;;;;;;13.88;83.53;100482.24;89515;1260;83006;-61
2022/09/10 00:36:38;;;;;;;;;;;;;;;13.80;83.49;100484.02;89527;1260;97756;-61
2022/09/10 00:38:45;;;;;;;;;;;;;;;13.73;83.43;100480.47;89508;1260;88743;-55
2022/09/10 00:40:52;;;;;;;;;;;;;;;13.66;83.29;100476.70;89317;1263;94338;-56
2022/09/10 00:43:00;;;;;;;;;;;;;;;13.64;83.41;100478.86;89458;1260;81616;-56
2022/09/10 00:45:15;;;;;;;;;;;;;;;13.61;83.59;100477.36;89483;1260;82852;-56
2022/09/10 00:47:26;;;;;;;;;;;;;;;13.62;83.55;100475.40;89467;1260;98755;-59
2022/09/10 00:49:37;;;;;;;;;;;;;;;13.66;83.59;100472.15;89485;1260;88007;-55
2022/09/10 00:51:46;;;;;;;;;;;;;;;13.69;83.50;100473.25;89482;1260;95366;-55
2022/09/10 00:53:54;;;;;;;;;;;;;;;13.71;83.47;100472.44;89493;1260;80999;-61
2022/09/10 00:56:07;;;;;;;;;;;;;;;13.70;83.45;100476.04;89481;1260;82368;-60
2022/09/10 00:58:17;;;;;;;;;;;;;;;13.71;83.48;100478.87;89526;1260;98688;-61
2022/09/10 01:00:26;;;;;;;;;;;;;;;13.73;83.56;100479.84;89529;1260;87616;-56
2022/09/10 01:02:33;;;;;;;;;;;;;;;13.71;83.62;100477.95;89490;1260;95828;-54
2022/09/10 01:04:40;;;;;;;;;;;;;;;13.70;83.55;100475.58;89510;1260;81596;-59
2022/09/10 01:06:50;;;;;;;;;;;;;;;13.75;83.49;100476.92;89542;1260;81949;-59
2022/09/10 01:08:57;;;;;;;;;;;;;;;13.75;83.43;100476.54;89533;1260;99220;-56
2022/09/10 01:11:13;;;;;;;;;;;;;;;13.75;83.47;100478.83;89534;1260;88615;-58
2022/09/10 01:13:33;;;;;;;;;;;;;;;13.79;83.27;100477.30;89504;1260;95311;-55
2022/09/10 01:15:48;;;;;;;;;;;;;;;13.78;83.18;100472.03;89496;1260;80189;-57
2022/09/10 01:18:05;;;;;;;;;;;;;;;13.76;83.25;100466.69;89507;1260;82619;-58
2022/09/10 01:20:25;;;;;;;;;;;;;;;13.70;83.28;100463.79;89517;1260;98287;-60
2022/09/10 01:22:37;;;;;;;;;;;;;;;13.69;83.21;100464.17;89508;1260;89240;-60
2022/09/10 01:24:53;;;;;;;;;;;;;;;13.62;83.34;100467.80;89481;1260;94694;-58
2022/09/10 01:27:28;;;;;;;;;;;;;;;13.58;83.34;100464.50;89511;1260;79013;-59
2022/09/10 01:29:38;;;;;;;;;;;;;;;13.54;83.37;100460.23;89527;1260;81318;-60
2022/09/10 01:31:52;;;;;;;;;;;;;;;13.49;83.39;100455.92;89511;1260;97262;-59
2022/09/10 01:34:03;;;;;;;;;;;;;;;13.48;83.38;100449.50;89463;1260;88846;-56
2022/09/10 01:36:14;;;;;;;;;;;;;;;13.47;83.47;100445.56;89465;1260;94272;-56
2022/09/10 01:38:25;;;;;;;;;;;;;;;13.50;83.51;100445.66;89494;1260;81985;-57
2022/09/10 01:40:32;;;;;;;;;;;;;;;13.52;83.51;100444.77;89497;1260;82196;-59
2022/09/10 01:42:41;;;;;;;;;;;;;;;13.55;83.59;100444.53;89510;1260;98280;-60
2022/09/10 01:44:49;;;;;;;;;;;;;;;13.55;83.62;100444.49;89499;1260;89018;-55
2022/09/10 01:47:04;;;;;;;;;;;;;;;13.56;83.63;100447.04;89488;1260;95796;-54
2022/09/10 01:49:24;;;;;;;;;;;;;;;13.60;83.64;100445.25;89508;1260;82059;-59
2022/09/10 01:51:43;;;;;;;;;;;;;;;13.64;83.57;100445.38;89508;1260;82332;-59
2022/09/10 01:54:10;;;;;;;;;;;;;;;13.60;83.55;100442.79;89515;1260;98205;-61
2022/09/10 01:56:26;;;;;;;;;;;;;;;13.57;83.60;100443.78;89523;1260;89176;-60
2022/09/10 01:58:36;;;;;;;;;;;;;;;13.62;83.52;100440.00;89501;1260;95483;-61
2022/09/10 02:00:45;;;;;;;;;;;;;;;13.69;83.49;100429.25;89538;1260;81707;-62
2022/09/10 02:02:57;;;;;;;;;;;;;;;13.72;83.41;100426.54;89583;1260;83033;-61
2022/09/10 02:05:09;;;;;;;;;;;;;;;13.72;83.42;100427.75;89503;1260;98482;-61
2022/09/10 02:07:18;;;;;;;;;;;;;;;13.72;83.32;100426.08;89510;1260;87347;-61
2022/09/10 02:09:24;;;;;;;;;;;;;;;13.68;83.28;100425.12;89500;1260;95301;-59
2022/09/10 02:11:32;;;;;;;;;;;;;;;13.69;83.27;100421.62;89487;1260;79070;-60
2022/09/10 02:13:41;;;;;;;;;;;;;;;13.70;83.19;100418.45;89495;1260;82447;-57
2022/09/10 02:15:51;;;;;;;;;;;;;;;13.66;83.02;100415.30;89483;1260;98001;-57
2022/09/10 02:17:59;;;;;;;;;;;;;;;13.59;83.10;100416.30;89516;1260;88665;-56
2022/09/10 02:20:09;;;;;;;;;;;;;;;13.56;83.09;100420.60;89486;1260;95135;-62
2022/09/10 02:22:16;;;;;;;;;;;;;;;13.47;83.17;100419.14;89505;1260;79739;-60
2022/09/10 02:24:23;;;;;;;;;;;;;;;13.42;83.22;100416.83;89510;1260;82088;-58
2022/09/10 02:26:32;;;;;;;;;;;;;;;13.39;83.31;100415.42;89469;1260;99443;-58
2022/09/10 02:28:39;;;;;;;;;;;;;;;13.36;83.28;100416.13;89525;1260;89335;-58
2022/09/10 02:30:48;;;;;;;;;;;;;;;13.34;83.32;100414.95;89512;1260;92812;-58
2022/09/10 02:32:56;;;;;;;;;;;;;;;13.32;83.40;100415.58;89500;1260;80486;-57
2022/09/10 02:35:03;;;;;;;;;;;;;;;13.31;83.37;100413.23;89541;1260;82931;-55
2022/09/10 02:37:10;;;;;;;;;;;;;;;13.30;83.47;100411.02;89520;1260;99488;-56
2022/09/10 02:39:17;;;;;;;;;;;;;;;13.28;83.46;100411.27;89528;1260;88492;-57
2022/09/10 02:41:24;;;;;;;;;;;;;;;13.25;83.59;100406.13;89539;1260;94966;-57
2022/09/10 02:43:31;;;;;;;;;;;;;;;13.25;83.66;100402.54;89499;1260;81092;-59
2022/09/10 02:45:39;;;;;;;;;;;;;;;13.28;83.78;100405.01;89570;1260;81805;-60
2022/09/10 02:47:47;;;;;;;;;;;;;;;13.32;83.75;100403.02;89480;1260;98781;-58
2022/09/10 02:49:54;;;;;;;;;;;;;;;13.33;83.77;100401.02;89524;1260;89380;-60
2022/09/10 02:52:03;;;;;;;;;;;;;;;13.39;83.72;100396.76;89491;1260;94225;-60
2022/09/10 02:54:11;;;;;;;;;;;;;;;13.44;83.68;100397.17;89494;1260;81696;-60
2022/09/10 02:56:18;;;;;;;;;;;;;;;13.50;83.55;100395.96;89476;1260;82938;-60
2022/09/10 02:58:25;;;;;;;;;;;;;;;13.47;83.58;100396.63;89503;1260;98380;-59
2022/09/10 03:00:32;;;;;;;;;;;;;;;13.48;83.64;100394.59;89470;1260;88145;-60
2022/09/10 03:02:39;;;;;;;;;;;;;;;13.57;83.59;100391.05;89465;1260;95320;-60
2022/09/10 03:04:46;;;;;;;;;;;;;;;13.60;83.59;100390.13;89504;1260;81922;-59
2022/09/10 03:06:54;;;;;;;;;;;;;;;13.64;83.58;100392.63;89464;1260;80300;-51
2022/09/10 03:09:01;;;;;;;;;;;;;;;13.65;83.43;100396.90;89524;1260;98370;-55
2022/09/10 03:11:08;;;;;;;;;;;;;;;13.64;83.43;100393.42;89507;1260;89172;-55
2022/09/10 03:13:19;;;;;;;;;;;;;;;13.64;83.45;100386.19;89504;1260;95771;-54
2022/09/10 03:15:27;;;;;;;;;;;;;;;13.68;83.30;100385.06;89491;1260;80175;-60
2022/09/10 03:17:33;;;;;;;;;;;;;;;13.64;83.29;100383.58;89501;1260;82305;-59
2022/09/10 03:19:40;;;;;;;;;;;;;;;13.62;83.31;100383.86;89520;1260;97368;-55
2022/09/10 03:21:47;;;;;;;;;;;;;;;13.57;83.25;100381.31;89461;1260;89067;-54
2022/09/10 03:23:55;;;;;;;;;;;;;;;13.42;83.48;100382.10;89515;1260;93595;-60
2022/09/10 03:26:03;;;;;;;;;;;;;;;13.37;83.38;100385.79;89537;1260;81532;-59
2022/09/10 03:28:11;;;;;;;;;;;;;;;13.34;83.42;100391.82;89561;1260;81385;-60
2022/09/10 03:30:20;;;;;;;;;;;;;;;13.33;83.41;100389.95;89532;1259;97769;-56
2022/09/10 03:32:28;;;;;;;;;;;;;;;13.31;83.48;100387.52;89550;1260;89191;-55
2022/09/10 03:34:35;;;;;;;;;;;;;;;13.33;83.47;100385.73;89543;1259;94166;-55
2022/09/10 03:36:42;;;;;;;;;;;;;;;13.32;83.61;100388.52;89538;1259;82006;-54
2022/09/10 03:38:48;;;;;;;;;;;;;;;13.34;83.72;100396.88;89568;1260;82340;-57
2022/09/10 03:40:56;;;;;;;;;;;;;;;13.37;83.61;100400.44;89565;1260;98816;-56
2022/09/10 03:43:04;;;;;;;;;;;;;;;13.41;83.56;100400.86;89539;1260;88356;-52
2022/09/10 03:45:14;;;;;;;;;;;;;;;13.39;83.62;100399.85;89529;1259;95527;-53
2022/09/10 03:47:21;;;;;;;;;;;;;;;13.35;83.72;100400.52;89518;1259;80430;-54
2022/09/10 03:49:28;;;;;;;;;;;;;;;13.36;83.58;100394.61;89532;1259;82675;-59
2022/09/10 03:51:35;;;;;;;;;;;;;;;13.35;83.59;100394.67;89475;1259;99031;-58
2022/09/10 03:53:42;;;;;;;;;;;;;;;13.34;83.57;100400.48;89529;1259;88081;-55
2022/09/10 03:55:50;;;;;;;;;;;;;;;13.37;83.65;100397.91;89445;1260;97359;-55
2022/09/10 03:57:58;;;;;;;;;;;;;;;13.38;83.53;100399.75;89518;1259;81435;-54
2022/09/10 04:00:08;;;;;;;;;;;;;;;13.36;83.69;100400.02;89547;1259;82738;-54
2022/09/10 04:02:15;;;;;;;;;;;;;;;13.31;83.70;100401.89;89546;1259;98818;-54
2022/09/10 04:04:24;;;;;;;;;;;;;;;13.35;83.60;100409.86;89548;1259;89108;-54
2022/09/10 04:06:32;;;;;;;;;;;;;;;13.34;83.50;100415.95;89520;1259;94462;-50
2022/09/10 04:08:39;;;;;;;;;;;;;;;13.29;83.51;100419.70;89508;1259;79896;-57
2022/09/10 04:10:47;;;;;;;;;;;;;;;13.23;83.56;100419.43;89529;1260;82458;-58
2022/09/10 04:12:54;;;;;;;;;;;;;;;13.20;83.49;100414.02;89515;1259;98791;-56
2022/09/10 04:15:03;;;;;;;;;;;;;;;13.17;83.59;100407.42;89556;1259;89141;-54
2022/09/10 04:17:13;;;;;;;;;;;;;;;13.07;83.73;100405.67;89553;1259;94386;-54
2022/09/10 04:19:21;;;;;;;;;;;;;;;13.00;83.65;100405.84;89528;1259;81173;-56
2022/09/10 04:21:27;;;;;;;;;;;;;;;12.93;83.81;100406.36;89556;1259;82073;-56
2022/09/10 04:23:34;;;;;;;;;;;;;;;12.94;83.83;100404.73;89568;1259;97764;-57
2022/09/10 04:25:42;;;;;;;;;;;;;;;12.96;83.87;100401.36;89498;1260;90308;-57
2022/09/10 04:27:49;;;;;;;;;;;;;;;12.95;84.08;100396.70;89534;1259;94959;-58
2022/09/10 04:29:59;;;;;;;;;;;;;;;12.98;83.98;100389.35;89488;1259;80833;-56
2022/09/10 04:32:08;;;;;;;;;;;;;;;13.01;84.11;100380.09;89516;1259;82989;-57
2022/09/10 04:34:15;;;;;;;;;;;;;;;13.05;84.09;100376.07;89504;1259;98499;-53
2022/09/10 04:36:23;;;;;;;;;;;;;;;13.10;84.05;100370.39;89517;1260;87563;-52
2022/09/10 04:38:31;;;;;;;;;;;;;;;13.13;84.00;100368.00;89548;1260;95149;-55
2022/09/10 04:40:38;;;;;;;;;;;;;;;13.18;83.94;100371.53;89495;1259;80898;-53
2022/09/10 04:42:45;;;;;;;;;;;;;;;13.13;84.10;100367.63;89545;1260;82293;-54
2022/09/10 04:44:52;;;;;;;;;;;;;;;13.15;84.03;100370.06;89535;1259;100300;-56
2022/09/10 04:46:59;;;;;;;;;;;;;;;13.12;84.13;100367.10;89500;1259;87261;-55
2022/09/10 04:49:09;;;;;;;;;;;;;;;13.17;84.07;100361.67;89519;1259;95534;-58
2022/09/10 04:51:17;;;;;;;;;;;;;;;13.20;83.99;100355.92;89565;1260;81297;-58
2022/09/10 04:53:24;;;;;;;;;;;;;;;13.24;84.03;100351.12;89520;1259;82088;-57
2022/09/10 04:55:33;;;;;;;;;;;;;;;13.17;84.12;100346.61;89496;1260;98053;-55
2022/09/10 04:57:42;;;;;;;;;;;;;;;13.24;84.05;100346.15;89527;1259;87926;-56
2022/09/10 04:59:49;;;;;;;;;;;;;;;13.30;83.90;100347.65;89540;1260;94129;-56
2022/09/10 05:01:56;;;;;;;;;;;;;;;13.26;83.89;100354.76;89538;1260;80045;-54
2022/09/10 05:04:04;;;;;;;;;;;;;;;13.22;83.86;100354.12;89577;1259;82726;-56
2022/09/10 05:06:11;;;;;;;;;;;;;;;13.20;83.90;100356.38;89524;1259;98139;-55
2022/09/10 05:08:19;;;;;;;;;;;;;;;13.16;83.84;100355.96;89551;1260;88303;-56
2022/09/10 05:10:28;;;;;;;;;;;;;;;13.12;83.89;100351.64;89505;1259;94847;-56
2022/09/10 05:12:35;;;;;;;;;;;;;;;13.10;84.00;100349.45;89531;1260;81329;-58
2022/09/10 05:14:42;;;;;;;;;;;;;;;13.14;83.89;100339.67;89544;1259;81700;-55
2022/09/10 05:16:49;;;;;;;;;;;;;;;13.14;83.97;100332.29;89531;1259;98117;-55
2022/09/10 05:18:58;;;;;;;;;;;;;;;13.15;84.12;100325.95;89558;1260;88429;-49
2022/09/10 05:21:07;;;;;;;;;;;;;;;13.16;84.02;100327.00;89511;1259;95473;-54
2022/09/10 05:23:14;;;;;;;;;;;;;;;13.17;84.23;100327.59;89470;1260;81814;-50
2022/09/10 05:25:22;;;;;;;;;;;;;;;13.16;84.08;100333.70;89509;1260;80890;-58
2022/09/10 05:27:32;;;;;;;;;;;;;;;13.17;84.17;100340.64;89533;1259;99731;-58
2022/09/10 05:29:41;;;;;;;;;;;;;;;13.20;84.21;100345.48;89520;1260;88763;-59
2022/09/10 05:31:49;;;;;;;;;;;;;;;13.21;84.30;100351.38;89515;1260;92778;-58
2022/09/10 05:34:00;;;;;;;;;;;;;;;13.25;84.29;100354.41;89489;1260;82090;-58
2022/09/10 05:36:09;;;;;;;;;;;;;;;13.27;84.18;100350.96;89506;1259;82353;-59
2022/09/10 05:38:18;;;;;;;;;;;;;;;13.31;84.20;100351.55;89548;1259;97398;-59
2022/09/10 05:40:28;;;;;;;;;;;;;;;13.36;84.13;100352.63;89513;1259;86979;-57
2022/09/10 05:42:35;;;;;;;;;;;;;;;13.40;84.10;100348.41;89554;1259;96103;-53
2022/09/10 05:44:42;;;;;;;;;;;;;;;13.42;84.00;100344.33;89537;1260;82322;-54
2022/09/10 05:46:49;;;;;;;;;;;;;;;13.41;84.11;100347.00;89511;1260;82794;-53
2022/09/10 05:48:56;;;;;;;;;;;;;;;13.32;84.15;100350.49;89559;1260;97598;-57
2022/09/10 05:51:03;;;;;;;;;;;;;;;13.37;84.02;100346.77;89577;1259;88794;-57
2022/09/10 05:53:10;;;;;;;;;;;;;;;13.37;83.86;100342.60;89537;1260;95077;-57
2022/09/10 05:55:19;;;;;;;;;;;;;;;13.36;83.94;100332.43;89533;1260;80166;-58
2022/09/10 05:57:30;;;;;;;;;;;;;;;13.38;83.86;100325.45;89555;1260;82358;-56
2022/09/10 05:59:36;;;;;;;;;;;;;;;13.30;83.85;100325.29;89526;1259;97998;-59
2022/09/10 06:01:44;;;;;;;;;;;;;;;13.31;83.85;100318.94;89528;1259;86734;-58
2022/09/10 06:03:55;;;;;;;;;;;;;;;13.30;83.86;100319.70;89519;1259;94580;-55
2022/09/10 06:06:02;;;;;;;;;;;;;;;13.30;83.87;100319.66;89487;1260;81053;-57
2022/09/10 06:08:10;;;;;;;;;;;;;;;13.26;83.84;100317.36;89570;1259;82165;-58
2022/09/10 06:10:19;;;;;;;;;;;;;;;13.27;83.72;100315.64;89495;1260;98362;-55
2022/09/10 06:12:28;;;;;;;;;;;;;;;13.25;83.72;100315.73;89535;1259;88376;-52
2022/09/10 06:14:36;;;;;;;;;;;;;;;13.21;83.86;100316.48;89490;1259;95310;-59
2022/09/10 06:16:43;;;;;;;;;;;;;;;13.16;83.99;100317.78;89534;1259;81019;-58
2022/09/10 06:18:50;;;;;;;;;;;;;;;13.22;84.02;100321.36;89532;1260;82644;-53
2022/09/10 06:21:06;;;;;;;;;;;;;;;13.27;84.07;100324.05;89494;1260;97303;-53
2022/09/10 06:23:14;;;;;;;;;;;;;;;13.35;84.03;100324.90;89532;1260;88057;-54
2022/09/10 06:25:24;;;;;;;;;;;;;;;13.41;83.99;100320.95;89578;1259;93415;-59
2022/09/10 06:27:32;;;;;;;;;;;;;;;13.43;84.08;100322.65;89507;1260;81828;-59
2022/09/10 06:29:39;;;;;;;;;;;;;;;13.47;83.91;100321.35;89541;1260;81871;-52
2022/09/10 06:31:46;;;;;;;;;;;;;;;13.52;83.91;100320.93;89527;1260;98732;-54
2022/09/10 06:33:53;;;;;;;;;;;;;;;13.49;83.83;100314.39;89561;1260;88932;-56
2022/09/10 06:36:02;;;;;;;;;;;;;;;13.48;83.95;100314.25;89508;1259;94737;-56
2022/09/10 06:38:10;;;;;;;;;;;;;;;13.50;83.89;100307.61;89524;1259;82457;-56
2022/09/10 06:40:18;;;;;;;;;;;;;;;13.52;83.85;100308.06;89522;1260;81632;-59
2022/09/10 06:42:25;;;;;;;;;;;;;;;13.61;83.74;100300.34;89482;1260;98973;-60
2022/09/10 06:44:34;;;;;;;;;;;;;;;13.70;83.66;100301.45;89516;1259;85833;-59
2022/09/10 06:46:42;;;;;;;;;;;;;;;13.76;83.55;100301.90;89517;1260;94843;-58
2022/09/10 06:48:50;;;;;;;;;;;;;;;13.80;83.64;100295.80;89520;1259;80785;-47
2022/09/10 06:50:59;;;;;;;;;;;;;;;13.87;83.46;100293.09;89539;1260;82121;-54
2022/09/10 06:53:07;;;;;;;;;;;;;;;13.89;83.30;100291.09;89531;1260;97869;-55
2022/09/10 06:55:14;;;;;;;;;;;;;;;13.85;83.07;100290.98;89538;1260;87933;-57
2022/09/10 06:57:25;;;;;;;;;;;;;;;13.86;82.95;100287.60;89514;1259;94642;-59
2022/09/10 06:59:32;;;;;;;;;;;;;;;13.85;82.95;100285.63;89570;1260;79853;-55
2022/09/10 07:01:40;;;;;;;;;;;;;;;13.84;82.89;100288.73;89529;1260;82548;-54
2022/09/10 07:03:48;;;;;;;;;;;;;;;13.83;82.86;100287.05;89557;1259;95471;-58
2022/09/10 07:05:56;;;;;;;;;;;;;;;13.81;82.82;100288.55;89540;1259;87805;-58
2022/09/10 07:08:05;;;;;;;;;;;;;;;13.79;82.74;100287.89;89516;1260;94290;-58
2022/09/10 07:10:13;;;;;;;;;;;;;;;13.76;82.73;100293.21;89576;1260;81612;-59
2022/09/10 07:12:21;;;;;;;;;;;;;;;13.71;82.80;100292.52;89528;1260;82944;-60
2022/09/10 07:14:28;;;;;;;;;;;;;;;13.68;82.82;100286.58;89555;1260;98130;-59
2022/09/10 07:16:40;;;;;;;;;;;;;;;13.73;82.97;100291.13;89528;1260;88727;-59
2022/09/10 07:18:50;;;;;;;;;;;;;;;13.78;82.87;100293.62;89501;1260;94431;-58
2022/09/10 07:21:06;;;;;;;;;;;;;;;13.80;82.89;100296.79;89479;1260;80674;-57
2022/09/10 07:23:17;;;;;;;;;;;;;;;13.86;82.72;100298.33;89536;1259;81376;-58
2022/09/10 07:25:26;;;;;;;;;;;;;;;13.93;82.87;100301.39;89495;1259;98773;-58
2022/09/10 07:27:36;;;;;;;;;;;;;;;14.00;82.65;100302.29;89728;1259;89601;-58
2022/09/10 07:32:26;;;;;;;;;;;;;;;14.01;82.43;100308.27;89728;1260;81493;-57
2022/09/10 07:37:05;;;;;;;;;;;;;;;14.02;82.63;100323.80;89474;1260;98345;-54
2022/09/10 07:39:12;;;;;;;;;;;;;;;13.97;82.77;100327.20;89735;1260;87913;-59
2022/09/10 07:41:21;;;;;;;;;;;;;;;13.92;82.79;100328.89;89209;1267;704147;-59
2022/09/10 07:43:30;;;;;;;;;;;;;;;13.94;82.63;100328.30;89732;1260;80818;-56
2022/09/10 07:45:41;;;;;;;;;;;;;;;13.93;82.51;100323.98;89771;1259;82478;-57
2022/09/10 07:47:50;;;;;;;;;;;;;;;13.91;82.55;100324.64;89747;1259;99700;-59
2022/09/10 07:50:03;;;;;;;;;;;;;;;13.91;82.30;100322.30;89756;1260;88845;-58
2022/09/10 07:52:11;;;;;;;;;;;;;;;13.92;82.28;100328.80;89752;1260;94246;-58
2022/09/10 07:54:18;;;;;;;;;;;;;;;13.90;82.29;100325.30;89770;1259;80774;-57
2022/09/10 07:56:29;;;;;;;;;;;;;;;13.87;82.10;100325.23;89764;1259;82313;-55
2022/09/10 07:58:37;;;;;;;;;;;;;;;13.83;82.06;100324.48;89522;1260;99502;-57
2022/09/10 08:00:46;;;;;;;;;;;;;;;13.73;82.12;100327.35;89779;1259;89197;-57
2022/09/10 08:02:55;;;;;;;;;;;;;;;13.73;82.12;100323.67;89742;1260;94914;-58
2022/09/10 08:05:05;;;;;;;;;;;;;;;13.74;82.04;100324.41;89762;1260;80482;-59
2022/09/10 08:07:19;;;;;;;;;;;;;;;13.76;81.96;100325.66;89717;1260;81132;-58
2022/09/10 08:09:39;;;;;;;;;;;;;;;13.75;82.11;100326.67;89736;1259;97220;-56
2022/09/10 08:11:47;;;;;;;;;;;;;;;13.79;82.36;100326.67;89492;1260;87994;-56
2022/09/10 08:13:56;;;;;;;;;;;;;;;13.84;82.45;100326.06;89503;1260;93896;-54
2022/09/10 08:16:09;;;;;;;;;;;;;;;13.94;82.40;100325.63;89735;1261;81747;-53
2022/09/10 08:18:21;;;;;;;;;;;;;;;13.99;82.27;100324.99;89727;1261;82347;-60
2022/09/10 08:20:29;;;;;;;;;;;;;;;14.05;82.26;100332.33;89703;1259;99154;-53
2022/09/10 08:22:39;;;;;;;;;;;;;;;14.12;82.23;100329.09;89714;1261;87615;-56
2022/09/10 08:24:48;;;;;;;;;;;;;;;14.20;82.12;100330.14;89731;1260;94889;-56
2022/09/10 08:26:55;;;;;;;;;;;;;;;14.19;82.01;100324.30;89761;1259;79441;-56
2022/09/10 08:29:02;;;;;;;;;;;;;;;14.23;81.89;100326.91;89766;1259;80655;-53
2022/09/10 08:31:11;;;;;;;;;;;;;;;14.29;82.01;100324.67;89781;1260;97875;-54
2022/09/10 08:33:20;;;;;;;;;;;;;;;14.34;81.78;100322.01;89741;1261;88203;-53
2022/09/10 08:35:28;;;;;;;;;;;;;;;14.31;81.70;100324.89;89769;1259;93591;-53
2022/09/10 08:37:37;;;;;;;;;;;;;;;14.30;81.74;100326.80;89790;1260;81009;-60
2022/09/10 08:39:50;;;;;;;;;;;;;;;14.34;81.56;100328.91;89764;1259;83114;-56
2022/09/10 08:42:00;;;;;;;;;;;;;;;14.33;81.42;100325.15;89785;1259;98504;-57
2022/09/10 08:44:15;;;;;;;;;;;;;;;14.28;81.50;100326.52;89504;1260;91649;-58
2022/09/10 08:46:29;;;;;;;;;;;;;;;14.25;81.41;100324.56;89766;1259;95554;-57
2022/09/10 08:48:38;;;;;;;;;;;;;;;14.21;81.41;100325.58;89753;1261;79705;-59
2022/09/10 08:50:51;;;;;;;;;;;;;;;14.23;81.28;100321.39;89782;1260;81320;-56
2022/09/10 08:53:04;;;;;;;;;;;;;;;14.26;81.23;100320.50;89728;1259;96577;-54
2022/09/10 08:55:21;;;;;;;;;;;;;;;14.29;81.26;100322.38;89703;1260;89503;-54
2022/09/10 08:57:31;;;;;;;;;;;;;;;14.25;81.26;100324.56;89747;1260;94301;-49
2022/09/10 08:59:44;;;;;;;;;;;;;;;14.18;81.24;100321.13;89703;1260;80778;-56
2022/09/10 09:01:55;;;;;;;;;;;;;;;14.14;81.23;100324.02;89735;1260;81897;-56
2022/09/10 09:04:07;;;;;;;;;;;;;;;14.15;81.29;100325.14;89734;1260;99439;-54
2022/09/10 09:06:24;;;;;;;;;;;;;;;14.16;81.34;100323.25;89748;1260;89054;-56
2022/09/10 09:08:34;;;;;;;;;;;;;;;14.13;81.27;100319.71;89729;1259;94266;-57
2022/09/10 09:10:47;;;;;;;;;;;;;;;14.11;81.20;100319.14;89727;1260;80206;-58
2022/09/10 09:13:14;;;;;;;;;;;;;;;14.15;81.23;100324.86;89753;1259;82716;-58
2022/09/10 09:15:25;;;;;;;;;;;;;;;14.16;81.24;100332.50;89751;1260;97073;-60
2022/09/10 09:17:55;;;;;;;;;;;;;;;14.17;81.29;100334.29;89733;1260;88751;-59
2022/09/10 09:20:10;;;;;;;;;;;;;;;14.15;81.31;100332.76;89751;1259;93057;-59
2022/09/10 09:22:20;;;;;;;;;;;;;;;14.22;81.29;100333.23;89743;1260;82284;-59
2022/09/10 09:24:36;;;;;;;;;;;;;;;14.31;81.31;100332.78;89768;1259;82857;-58
2022/09/10 09:26:45;;;;;;;;;;;;;;;14.32;81.27;100338.98;89743;1259;98630;-58
2022/09/10 09:28:57;;;;;;;;;;;;;;;14.40;81.21;100338.50;89772;1261;88647;-57
2022/09/10 09:31:12;;;;;;;;;;;;;;;14.44;81.43;100336.27;89738;1260;95398;-56
2022/09/10 09:33:23;;;;;;;;;;;;;;;14.48;81.27;100332.86;89729;1259;81752;-55
2022/09/10 09:35:33;;;;;;;;;;;;;;;14.50;81.36;100330.39;89731;1259;82826;-56
2022/09/10 09:37:42;;;;;;;;;;;;;;;14.58;81.35;100324.20;89787;1260;97661;-56
2022/09/10 09:40:03;;;;;;;;;;;;;;;14.65;81.14;100322.99;89756;1260;86115;-55
2022/09/10 09:42:21;;;;;;;;;;;;;;;14.70;81.20;100315.21;89735;1260;94570;-59
2022/09/10 09:44:39;;;;;;;;;;;;;;;14.77;81.06;100311.84;89753;1260;80939;-55
2022/09/10 09:46:50;;;;;;;;;;;;;;;14.79;80.77;100310.48;89343;1263;81886;-55
2022/09/10 09:49:15;;;;;;;;;;;;;;;14.76;80.59;100314.17;89515;1260;96676;-61
2022/09/10 09:51:31;;;;;;;;;;;;;;;14.77;80.38;100312.05;89780;1260;86234;-60
2022/09/10 09:53:51;;;;;;;;;;;;;;;14.69;80.27;100311.71;89567;1260;93903;-62
2022/09/10 09:56:23;;;;;;;;;;;;;;;14.64;80.27;100307.40;89777;1261;78234;-62
2022/09/10 09:58:36;;;;;;;;;;;;;;;14.52;80.43;100308.13;89781;1259;82041;-61
2022/09/10 10:00:47;;;;;;;;;;;;;;;14.56;80.37;100310.91;89762;1260;98964;-61
2022/09/10 10:03:18;;;;;;;;;;;;;;;14.59;80.26;100313.27;89758;1260;87793;-61
2022/09/10 10:05:34;;;;;;;;;;;;;;;14.60;80.29;100303.15;89525;1260;94486;-59
2022/09/10 10:07:43;;;;;;;;;;;;;;;14.63;80.27;100296.94;89758;1260;77463;-56
2022/09/10 10:09:56;;;;;;;;;;;;;;;14.66;80.12;100293.16;89779;1260;79133;-60
2022/09/10 10:12:21;;;;;;;;;;;;;;;14.64;80.15;100286.44;89548;1261;97380;-57
2022/09/10 10:14:43;;;;;;;;;;;;;;;14.66;80.22;100291.45;89772;1259;87376;-61
2022/09/10 10:16:59;;;;;;;;;;;;;;;14.66;80.13;100297.98;89716;1261;92641;-60
2022/09/10 10:21:53;;;;;;;;;;;;;;;14.78;80.19;100304.41;86257;1302;599384;-55
2022/09/10 10:24:29;;;;;;;;;;;;;;;14.82;80.16;100301.01;88659;1272;79918;-59
2022/09/10 10:27:18;;;;;;;;;;;;;;;14.88;80.20;100302.14;88598;1272;82916;-60
2022/09/10 10:29:29;;;;;;;;;;;;;;;14.98;79.86;100292.06;88618;1272;95627;-57
2022/09/10 10:31:45;;;;;;;;;;;;;;;15.03;79.76;100285.20;88638;1272;88552;-61
2022/09/10 10:34:06;;;;;;;;;;;;;;;15.04;79.86;100282.64;88534;1275;94216;-58
2022/09/10 10:36:26;;;;;;;;;;;;;;;15.06;79.72;100278.79;88323;1269;658391;-57
2022/09/10 10:38:44;;;;;;;;;;;;;;;15.04;79.67;100276.33;88879;1271;82755;-58
2022/09/10 10:41:08;;;;;;;;;;;;;;;15.03;79.60;100267.80;88850;1269;95885;-55
2022/09/10 10:43:26;;;;;;;;;;;;;;;15.07;79.42;100259.05;88794;1272;86357;-57
2022/09/10 10:45:46;;;;;;;;;;;;;;;15.03;79.51;100257.45;88795;1269;93543;-58
2022/09/10 10:48:04;;;;;;;;;;;;;;;15.06;79.46;100252.88;88828;1269;79746;-57
2022/09/10 10:50:25;;;;;;;;;;;;;;;15.07;79.49;100253.57;88847;1269;81532;-59
2022/09/10 10:52:40;;;;;;;;;;;;;;;15.10;79.28;100252.41;88837;1269;96521;-60
2022/09/10 10:54:59;;;;;;;;;;;;;;;15.11;79.25;100255.58;88739;1271;87215;-61
2022/09/10 10:57:18;;;;;;;;;;;;;;;15.13;79.20;100258.29;88774;1269;94803;-60
2022/09/10 10:59:40;;;;;;;;;;;;;;;15.12;79.02;100264.49;88847;1269;80711;-58
2022/09/10 11:01:53;;;;;;;;;;;;;;;15.03;78.91;100265.84;88852;1269;82082;-57
2022/09/10 11:04:22;;;;;;;;;;;;;;;14.99;79.05;100266.91;88878;1269;97651;-53
2022/09/10 11:06:40;;;;;;;;;;;;;;;14.96;78.87;100269.61;88597;1272;87910;-54
2022/09/10 11:08:51;;;;;;;;;;;;;;;14.88;78.70;100264.54;88813;1269;94519;-57
2022/09/10 11:11:02;;;;;;;;;;;;;;;14.85;78.74;100253.74;88812;1269;80717;-57
2022/09/10 11:13:14;;;;;;;;;;;;;;;14.82;78.87;100245.81;88728;1271;82577;-53
2022/09/10 11:15:32;;;;;;;;;;;;;;;14.87;78.70;100239.34;89013;1267;95868;-57
2022/09/10 11:17:45;;;;;;;;;;;;;;;14.84;78.71;100237.85;89048;1269;87845;-58